Colliers, Canada
Current Conditions -  °F | °C
As of 5:00 AM on Thursday 23 Oct 2014 (Local Time) from CYYT Reporting Station
Broken Clouds Broken Clouds  
Wind Chill: 37°   Ceiling: 23000
Heat Index: 37°   Visibility: 15mi
Dew Point: 36°   Wind: 2mph
Humidity: 93%   Direction: 120°ESE
Pressure: 30.42"   Gusts: NA
Location:  47.45°N, 53.23°W
Report Text: CYYT 230700Z 12002KT 15SM BKN230 03/02 A3042 RMK CI6 SLP307
Loading
Personal Weather Stations






























Interactive Weather Map
Tropical Storm Tracking
New forecast layout! Learn more

10-Day Weather Forecast

Advertisements
Track Severe Weather on mobile